Forside
METAR-TAF:

METAR-TAF

Lufthavne :

Madison, Wisconsin, USA

Breddekreds: 43-08-26N, længdekreds: 089-20-43W, højde: 262 m

Aktuelle vejr

Denne rapport blev lavet for 28 minutter siden, kl. 09:53 UTC
Vind 3 kt fra sydvest
Temperatur -1°C
Fugtighed 93%
Tryk 1009 hPa
Sigt: 8.0 km
skyfri
dis

METAR: KMSN 270953Z AUTO 22003KT 5SM BR CLR M01/M02 A2980 RMK AO2 SLP100 T10111017

Tid: 04:21 (10:21 UTC)

Vejrudsigter

Denne rapport blev lavet for 1 time og 17 minutter siden, kl. 09:04 UTC
Foreløbig gælder fra 27 på 09 UTC til 28 på 06 UTC
Vind 3 kt fra sydsydvest
Sigt: 8.0 km
skyfri
dis
Fra 27 på 1300 UTC
Vind 5 kt fra sydsydvest
Sigt: 10 km
Nogle få skyer i en højde af 12000 ft
Fra 28 på 0000 UTC
Vind 4 kt fra sydsydøst
Sigt: 10 km
Spredte skyer i en højde af 4000 ft
Fra 28 på 0400 UTC
Vind 4 kt fra sydøst
Sigt: 10 km
Brudte skyer i en højde af 2700 ft

TAF: KMSN 270904Z 2709/2806 21003KT 5SM BR SKC FM271300 21005KT P6SM FEW120 FM280000 16004KT P6SM SCT040 FM280400 14004KT P6SM BKN027

Vejrobservationer og prognoser fra mere end 4000 lufthavne (METAR og TAF).

De gule og røde prikker repræsenterer de meteorologiske stationer.

Flyt musen over at se navnet på stationen.

Så klik over at se vejr observationer og prognoser.

At skifte det kort: Klik på de grønne knapper med et sort kors for at zoome ind; på den grønne knap med en bindestreg for at zoome ud; eller på de grønne pile for tilstødende kort.


METAR-TAF: